createdAt,value
2023-04-03T00:01:19.058Z,6.63
2023-04-03T00:03:46.635Z,6.55
2023-04-03T00:06:14.167Z,6.43
2023-04-03T00:08:41.943Z,7.00
2023-04-03T00:11:10.840Z,6.22
2023-04-03T00:13:39.977Z,6.13
2023-04-03T00:16:12.323Z,6.75
2023-04-03T00:18:43.495Z,7.22
2023-04-03T00:21:14.608Z,7.30
2023-04-03T00:23:41.857Z,7.38
2023-04-03T00:26:15.547Z,6.93
2023-04-03T00:28:43.638Z,7.13
2023-04-03T00:31:11.238Z,6.65
2023-04-03T00:33:38.475Z,6.90
2023-04-03T00:36:11.439Z,7.38
2023-04-03T00:38:40.916Z,6.85
2023-04-03T00:41:08.877Z,7.43
2023-04-03T00:43:36.238Z,6.45
2023-04-03T00:46:03.478Z,6.65
2023-04-03T00:49:05.044Z,6.45
2023-04-03T00:51:32.705Z,5.10
2023-04-03T00:54:06.394Z,5.57
2023-04-03T00:56:34.082Z,4.90
2023-04-03T00:59:16.397Z,4.82
2023-04-03T01:01:44.876Z,5.43
2023-04-03T01:04:38.127Z,4.95
2023-04-03T01:07:19.969Z,5.28
2023-04-03T01:09:53.937Z,5.10
2023-04-03T01:13:11.669Z,4.97
2023-04-03T01:15:38.988Z,5.88
2023-04-03T01:18:06.300Z,5.15
2023-04-03T01:20:34.064Z,4.65
2023-04-03T01:23:11.557Z,5.28
2023-04-03T01:25:49.774Z,5.50
2023-04-03T01:28:43.526Z,5.15
2023-04-03T01:31:25.877Z,5.35
2023-04-03T01:33:56.078Z,5.53
2023-04-03T01:36:30.964Z,5.57
2023-04-03T01:39:00.955Z,5.10
2023-04-03T01:41:29.713Z,5.32
2023-04-03T01:44:04.909Z,5.25
2023-04-03T01:46:32.691Z,5.28
2023-04-03T01:48:59.919Z,5.10
2023-04-03T01:51:27.099Z,5.78
2023-04-03T01:53:54.334Z,5.20
2023-04-03T01:56:22.088Z,5.10
2023-04-03T01:58:49.736Z,5.03
2023-04-03T02:01:18.602Z,5.20
2023-04-03T02:03:46.003Z,4.95
2023-04-03T02:06:13.200Z,5.20
2023-04-03T02:09:01.549Z,5.13
2023-04-03T02:11:28.842Z,4.88
2023-04-03T02:13:56.305Z,6.22
2023-04-03T02:16:23.915Z,5.10
2023-04-03T02:18:51.480Z,5.47
2023-04-03T02:21:18.977Z,4.88
2023-04-03T02:23:46.339Z,5.55
2023-04-03T02:26:16.885Z,5.03
2023-04-03T02:28:46.766Z,5.53
2023-04-03T02:31:14.171Z,5.10
2023-04-03T02:33:43.388Z,5.10
2023-04-03T02:36:13.656Z,5.57
2023-04-03T02:38:43.873Z,5.28
2023-04-03T02:41:13.686Z,6.07
2023-04-03T02:43:41.381Z,5.55
2023-04-03T02:46:09.532Z,6.05
2023-04-03T02:48:37.687Z,6.10
2023-04-03T02:51:05.590Z,5.70
2023-04-03T02:53:32.965Z,5.10
2023-04-03T02:56:06.069Z,5.68
2023-04-03T02:58:33.238Z,5.72
2023-04-03T03:01:02.507Z,6.53
2023-04-03T03:03:29.830Z,5.28
2023-04-03T03:06:06.870Z,5.53
2023-04-03T03:08:35.254Z,6.25
2023-04-03T03:11:03.851Z,5.57
2023-04-03T03:15:58.969Z,5.88
2023-04-03T03:18:26.575Z,5.30
2023-04-03T03:20:57.153Z,5.65
2023-04-03T03:23:27.352Z,5.57
2023-04-03T03:26:01.720Z,5.70
2023-04-03T03:28:29.105Z,6.13
2023-04-03T03:30:56.681Z,5.72
2023-04-03T03:33:24.978Z,6.50
2023-04-03T03:35:54.286Z,6.05
2023-04-03T03:38:22.296Z,7.13
2023-04-03T03:40:50.872Z,6.93
2023-04-03T03:43:21.222Z,7.68
2023-04-03T03:45:54.958Z,8.60
2023-04-03T03:48:24.558Z,8.82
2023-04-03T03:50:51.952Z,8.82
2023-04-03T03:53:22.032Z,8.23
2023-04-03T03:55:52.849Z,8.90
2023-04-03T03:58:22.580Z,9.73
2023-04-03T04:00:49.789Z,9.57
2023-04-03T04:03:17.350Z,8.95
2023-04-03T04:05:48.494Z,8.75
2023-04-03T04:08:15.816Z,8.63
2023-04-03T04:10:44.623Z,8.93
2023-04-03T04:13:13.507Z,8.60
2023-04-03T04:15:41.309Z,8.68
2023-04-03T04:18:08.854Z,8.00
2023-04-03T04:20:36.054Z,8.65
2023-04-03T04:23:03.533Z,8.93
2023-04-03T04:25:32.149Z,9.40
2023-04-03T04:27:59.423Z,9.05
2023-04-03T04:30:28.413Z,8.40
2023-04-03T04:32:57.276Z,8.20
2023-04-03T04:35:25.381Z,8.88
2023-04-03T04:37:53.537Z,8.18
2023-04-03T04:40:22.078Z,8.05
2023-04-03T04:42:49.476Z,9.50
2023-04-03T04:45:17.345Z,9.38
2023-04-03T04:47:47.072Z,9.65
2023-04-03T04:50:14.756Z,10.00
2023-04-03T04:52:42.331Z,8.73
2023-04-03T04:55:09.889Z,9.25
2023-04-03T04:57:38.067Z,8.93
2023-04-03T05:00:06.964Z,9.32
2023-04-03T05:02:34.587Z,9.35
2023-04-03T05:05:04.401Z,8.90
2023-04-03T05:07:33.188Z,9.98
2023-04-03T05:10:01.369Z,9.68
2023-04-03T05:12:29.664Z,10.05
2023-04-03T05:15:00.829Z,10.18
2023-04-03T05:17:30.347Z,10.32
2023-04-03T05:19:58.152Z,10.07
2023-04-03T05:22:27.362Z,10.15
2023-04-03T05:24:58.037Z,9.48
2023-04-03T05:27:26.007Z,10.75
2023-04-03T05:29:56.403Z,11.40
2023-04-03T05:32:27.333Z,13.20
2023-04-03T05:35:07.531Z,18.92
2023-04-03T05:37:35.528Z,22.35
2023-04-03T05:40:05.510Z,15.85
2023-04-03T05:42:33.647Z,14.07
2023-04-03T05:45:01.093Z,12.85
2023-04-03T05:47:28.415Z,11.02
2023-04-03T05:49:55.817Z,9.07
2023-04-03T05:52:30.242Z,7.32
2023-04-03T05:54:58.427Z,7.38
2023-04-03T05:57:28.639Z,7.05
2023-04-03T05:59:56.464Z,7.10
2023-04-03T06:02:27.083Z,7.25
2023-04-03T06:04:54.724Z,6.57
2023-04-03T06:07:28.912Z,7.43
2023-04-03T06:09:58.258Z,6.63
2023-04-03T06:12:25.800Z,5.88
2023-04-03T06:14:53.675Z,5.13
2023-04-03T06:17:21.331Z,5.13
2023-04-03T06:19:48.916Z,4.40
2023-04-03T06:22:16.592Z,4.32
2023-04-03T06:24:44.601Z,4.55
2023-04-03T06:27:13.213Z,4.35
2023-04-03T06:29:40.858Z,4.60
2023-04-03T06:32:08.007Z,4.63
2023-04-03T06:34:35.187Z,3.70
2023-04-03T06:37:03.055Z,3.83
2023-04-03T06:39:30.390Z,4.10
2023-04-03T06:41:57.585Z,4.32
2023-04-03T06:44:35.524Z,3.78
2023-04-03T06:47:02.768Z,3.90
2023-04-03T06:49:30.285Z,3.78
2023-04-03T06:51:58.516Z,3.85
2023-04-03T06:54:27.087Z,3.80
2023-04-03T06:56:54.230Z,4.18
2023-04-03T06:59:21.448Z,4.22
2023-04-03T07:01:48.739Z,4.85
2023-04-03T07:04:17.079Z,3.85
2023-04-03T07:06:44.400Z,4.43
2023-04-03T07:09:11.923Z,4.70
2023-04-03T07:11:39.150Z,4.10
2023-04-03T07:14:08.637Z,4.72
2023-04-03T07:16:36.584Z,5.05
2023-04-03T07:19:04.538Z,4.57
2023-04-03T07:21:31.749Z,3.80
2023-04-03T07:23:59.066Z,4.72
2023-04-03T07:26:26.570Z,4.22
2023-04-03T07:28:53.721Z,4.85
2023-04-03T07:31:21.548Z,4.65
2023-04-03T07:33:48.757Z,4.35
2023-04-03T07:36:20.948Z,4.55
2023-04-03T07:38:48.107Z,5.13
2023-04-03T07:41:19.198Z,7.18
2023-04-03T07:43:47.926Z,4.65
2023-04-03T07:46:15.254Z,4.22
2023-04-03T07:48:42.612Z,3.90
2023-04-03T07:51:11.575Z,4.15
2023-04-03T07:53:38.703Z,4.05
2023-04-03T07:56:06.383Z,4.38
2023-04-03T07:58:33.929Z,3.42
2023-04-03T08:01:01.566Z,3.78
2023-04-03T08:03:28.904Z,3.78
2023-04-03T08:06:03.169Z,3.50
2023-04-03T08:08:31.059Z,4.07
2023-04-03T08:11:01.559Z,3.45
2023-04-03T08:13:29.769Z,3.90
2023-04-03T08:15:58.253Z,3.47
2023-04-03T08:18:26.814Z,4.20
2023-04-03T08:20:53.954Z,3.55
2023-04-03T08:23:21.209Z,3.45
2023-04-03T08:25:48.376Z,3.95
2023-04-03T08:28:16.000Z,3.35
2023-04-03T08:30:43.711Z,4.18
2023-04-03T08:33:11.762Z,3.60
2023-04-03T08:35:43.441Z,4.18
2023-04-03T08:38:11.718Z,3.90
2023-04-03T08:40:46.240Z,4.25
2023-04-03T08:44:01.286Z,4.90
2023-04-03T08:47:14.541Z,4.30
2023-04-03T08:49:59.983Z,3.75
2023-04-03T08:52:46.498Z,4.28
2023-04-03T08:55:50.784Z,4.03
2023-04-03T08:58:25.884Z,3.92
2023-04-03T09:01:41.054Z,4.25
2023-04-03T09:04:20.404Z,4.30
2023-04-03T09:06:59.632Z,3.70
2023-04-03T09:09:37.004Z,4.38
2023-04-03T09:12:28.245Z,4.20
2023-04-03T09:15:31.344Z,3.97
2023-04-03T09:18:21.146Z,3.60
2023-04-03T09:21:26.519Z,3.03
2023-04-03T09:24:00.092Z,2.95
2023-04-03T09:26:40.297Z,3.80
2023-04-03T09:29:09.325Z,3.33
2023-04-03T09:31:44.891Z,3.75
2023-04-03T09:34:27.201Z,4.18
2023-04-03T09:37:06.738Z,3.55
2023-04-03T09:39:55.169Z,3.28
2023-04-03T09:42:26.793Z,4.00
2023-04-03T09:45:02.067Z,3.65
2023-04-03T09:47:39.036Z,3.97
2023-04-03T09:50:22.247Z,3.33
2023-04-03T09:52:55.408Z,4.10
2023-04-03T09:55:30.893Z,3.40
2023-04-03T09:58:06.006Z,3.08
2023-04-03T10:00:41.737Z,3.88
2023-04-03T10:03:37.484Z,3.10
2023-04-03T10:06:24.150Z,2.97
2023-04-03T10:09:08.569Z,2.50
2023-04-03T10:11:35.811Z,2.78
2023-04-03T10:14:06.876Z,3.47
2023-04-03T10:16:48.917Z,3.60
2023-04-03T10:19:45.292Z,2.97
2023-04-03T10:22:34.952Z,2.65
2023-04-03T10:25:29.039Z,2.40
2023-04-03T10:28:04.815Z,3.28
2023-04-03T10:30:53.716Z,3.70
2023-04-03T10:33:49.204Z,3.33
2023-04-03T10:36:35.736Z,3.35
2023-04-03T10:39:55.524Z,2.88
2023-04-03T10:43:02.922Z,3.03
2023-04-03T10:45:35.499Z,3.08
2023-04-03T10:48:45.002Z,3.25
2023-04-03T10:51:35.847Z,2.33
2023-04-03T10:54:27.612Z,3.17
2023-04-03T10:57:12.753Z,3.35
2023-04-03T10:59:59.298Z,2.70
2023-04-03T11:02:39.449Z,3.30
2023-04-03T11:05:27.864Z,2.90
2023-04-03T11:07:58.274Z,3.20
2023-04-03T11:11:01.546Z,3.28
2023-04-03T11:13:41.988Z,3.20
2023-04-03T11:18:45.933Z,3.15
2023-04-03T11:21:33.512Z,2.80
2023-04-03T11:24:04.274Z,3.33
2023-04-03T11:26:38.441Z,3.08
2023-04-03T11:29:28.231Z,3.08
2023-04-03T11:33:19.891Z,2.90
2023-04-03T11:35:53.227Z,2.40
2023-04-03T11:38:32.266Z,2.47
2023-04-03T11:41:00.080Z,2.50
2023-04-03T11:43:30.772Z,3.08
2023-04-03T11:46:07.809Z,2.97
2023-04-03T11:48:46.431Z,3.05
2023-04-03T11:51:13.678Z,2.90
2023-04-03T11:53:43.612Z,2.63
2023-04-03T11:56:26.860Z,2.40
2023-04-03T11:59:06.130Z,2.65
2023-04-03T12:01:53.574Z,2.33
2023-04-03T12:04:26.336Z,2.65
2023-04-03T12:07:15.817Z,2.53
2023-04-03T12:09:43.453Z,2.50
2023-04-03T12:12:31.999Z,2.30
2023-04-03T12:15:44.465Z,2.50
2023-04-03T12:18:45.782Z,2.40
2023-04-03T12:21:19.329Z,2.40
2023-04-03T12:24:08.397Z,2.60
2023-04-03T12:27:21.487Z,2.65
2023-04-03T12:30:08.113Z,1.90
2023-04-03T12:32:41.754Z,2.33
2023-04-03T12:35:24.587Z,2.10
2023-04-03T12:39:12.220Z,2.10
2023-04-03T12:45:25.308Z,2.25
2023-04-03T12:47:56.597Z,2.17
2023-04-03T12:50:33.759Z,2.40
2023-04-03T12:53:19.629Z,2.20
2023-04-03T12:55:46.854Z,2.22
2023-04-03T12:58:31.663Z,2.60
2023-04-03T13:01:20.122Z,2.70
2023-04-03T13:03:53.754Z,2.55
2023-04-03T13:06:32.078Z,2.38
2023-04-03T13:09:02.128Z,2.40
2023-04-03T13:11:41.819Z,2.80
2023-04-03T13:14:38.898Z,2.13
2023-04-03T13:17:16.321Z,2.22
2023-04-03T13:19:47.517Z,2.47
2023-04-03T13:22:40.537Z,3.10
2023-04-03T13:25:14.484Z,2.25
2023-04-03T13:27:44.851Z,2.63
2023-04-03T13:30:38.050Z,2.40
2023-04-03T13:33:24.596Z,2.28
2023-04-03T13:36:19.747Z,2.10
2023-04-03T13:38:47.248Z,2.20
2023-04-03T13:41:41.833Z,2.38
2023-04-03T13:44:24.296Z,2.60
2023-04-03T13:47:26.607Z,2.20
2023-04-03T13:50:15.609Z,2.30
2023-04-03T13:53:12.754Z,2.30
2023-04-03T13:56:15.669Z,2.35
2023-04-03T13:59:03.377Z,2.70
2023-04-03T14:02:13.433Z,2.20
2023-04-03T14:04:57.121Z,2.40
2023-04-03T14:07:25.987Z,2.20
2023-04-03T14:09:54.339Z,2.15
2023-04-03T14:12:34.492Z,2.60
2023-04-03T14:15:06.342Z,2.13
2023-04-03T14:17:33.647Z,2.15
2023-04-03T14:20:01.882Z,2.20
2023-04-03T14:22:34.494Z,2.50
2023-04-03T14:25:02.532Z,1.98
2023-04-03T14:27:42.524Z,2.30
2023-04-03T14:30:32.134Z,2.40
2023-04-03T14:33:01.054Z,2.20
2023-04-03T14:35:29.593Z,2.30
2023-04-03T14:37:57.249Z,2.40
2023-04-03T14:40:28.599Z,2.00
2023-04-03T14:42:56.479Z,2.40
2023-04-03T14:47:57.614Z,2.83
2023-04-03T14:50:28.472Z,2.30
2023-04-03T14:53:00.157Z,2.42
2023-04-03T14:55:28.602Z,2.33
2023-04-03T14:57:56.031Z,2.50
2023-04-03T15:00:23.595Z,3.17
2023-04-03T15:02:51.647Z,2.75
2023-04-03T15:07:55.784Z,2.83
2023-04-03T15:10:28.952Z,2.83
2023-04-03T15:12:57.470Z,2.60
2023-04-03T15:15:29.513Z,2.50
2023-04-03T15:18:01.145Z,2.42
2023-04-03T15:20:31.899Z,2.45
2023-04-03T15:23:02.084Z,2.65
2023-04-03T15:25:30.561Z,2.40
2023-04-03T15:27:58.701Z,3.17
2023-04-03T15:30:25.876Z,2.50
2023-04-03T15:32:54.164Z,3.33
2023-04-03T15:35:21.584Z,2.63
2023-04-03T15:37:49.185Z,2.42
2023-04-03T15:40:19.779Z,2.67
2023-04-03T15:42:52.381Z,2.78
2023-04-03T15:45:22.682Z,3.00
2023-04-03T15:47:51.131Z,2.75
2023-04-03T15:50:18.597Z,2.65
2023-04-03T15:52:45.823Z,2.78
2023-04-03T15:55:13.008Z,2.80
2023-04-03T16:00:13.952Z,2.88
2023-04-03T16:02:42.527Z,2.63
2023-04-03T16:05:13.314Z,2.30
2023-04-03T16:07:41.204Z,2.78
2023-04-03T16:10:10.725Z,2.60
2023-04-03T16:12:37.995Z,2.67
2023-04-03T16:15:06.760Z,3.00
2023-04-03T16:17:36.722Z,2.60
2023-04-03T16:20:08.107Z,2.65
2023-04-03T16:22:35.538Z,3.90
2023-04-03T16:25:03.490Z,2.60
2023-04-03T16:27:31.838Z,2.45
2023-04-03T16:29:59.831Z,2.83
2023-04-03T16:32:31.850Z,3.22
2023-04-03T16:37:33.100Z,2.70
2023-04-03T16:40:00.755Z,2.60
2023-04-03T16:42:27.934Z,2.80
2023-04-03T16:44:55.262Z,2.50
2023-04-03T16:47:22.441Z,2.67
2023-04-03T16:49:49.704Z,2.40
2023-04-03T16:52:16.971Z,2.45
2023-04-03T16:54:44.149Z,2.40
2023-04-03T16:57:11.398Z,4.82
2023-04-03T16:59:38.548Z,2.70
2023-04-03T17:02:05.733Z,2.38
2023-04-03T17:04:32.874Z,2.47
2023-04-03T17:07:06.289Z,2.50
2023-04-03T17:09:34.856Z,2.70
2023-04-03T17:12:02.790Z,3.00
2023-04-03T17:16:57.404Z,2.72
2023-04-03T17:19:25.117Z,2.85
2023-04-03T17:21:52.981Z,2.97
2023-04-03T17:24:20.345Z,2.45
2023-04-03T17:26:47.554Z,2.97
2023-04-03T17:29:14.860Z,2.77
2023-04-03T17:31:42.054Z,2.65
2023-04-03T17:34:11.982Z,2.47
2023-04-03T17:36:41.309Z,2.60
2023-04-03T17:39:08.693Z,2.60
2023-04-03T17:41:36.035Z,2.47
2023-04-03T17:44:04.437Z,2.97
2023-04-03T17:46:33.215Z,3.35
2023-04-03T17:49:02.345Z,2.78
2023-04-03T17:51:29.687Z,3.30
2023-04-03T17:53:56.897Z,2.72
2023-04-03T17:56:29.543Z,3.28
2023-04-03T17:59:00.686Z,3.05
2023-04-03T18:01:31.780Z,2.53
2023-04-03T18:04:04.327Z,3.47
2023-04-03T18:06:44.372Z,2.55
2023-04-03T18:09:20.188Z,2.83
2023-04-03T18:11:50.001Z,2.53
2023-04-03T18:14:23.296Z,3.17
2023-04-03T18:16:51.568Z,3.15
2023-04-03T18:19:23.300Z,2.60
2023-04-03T18:22:03.721Z,2.70
2023-04-03T18:24:34.407Z,3.20
2023-04-03T18:27:11.022Z,2.35
2023-04-03T18:29:41.372Z,3.10
2023-04-03T18:32:13.678Z,3.20
2023-04-03T18:34:41.186Z,2.75
2023-04-03T18:37:08.342Z,2.70
2023-04-03T18:39:36.096Z,2.67
2023-04-03T18:42:17.207Z,2.58
2023-04-03T18:44:48.585Z,2.80
2023-04-03T18:47:15.915Z,2.80
2023-04-03T18:49:44.385Z,3.10
2023-04-03T18:52:13.787Z,3.20
2023-04-03T18:54:42.728Z,3.15
2023-04-03T18:57:09.987Z,3.13
2023-04-03T18:59:37.842Z,3.22
2023-04-03T19:02:06.736Z,3.20
2023-04-03T19:04:34.558Z,3.08
2023-04-03T19:07:05.461Z,2.53
2023-04-03T19:09:33.504Z,2.97
2023-04-03T19:12:01.902Z,3.53
2023-04-03T19:16:56.339Z,2.67
2023-04-03T19:19:23.761Z,2.60
2023-04-03T19:21:51.291Z,3.10
2023-04-03T19:24:18.766Z,2.67
2023-04-03T19:26:46.035Z,2.80
2023-04-03T19:29:13.416Z,2.72
2023-04-03T19:31:40.908Z,2.70
2023-04-03T19:34:08.684Z,2.80
2023-04-03T19:36:37.379Z,2.60
2023-04-03T19:39:05.947Z,2.45
2023-04-03T19:41:36.663Z,2.67
2023-04-03T19:44:07.137Z,2.67
2023-04-03T19:46:36.185Z,2.60
2023-04-03T19:49:06.057Z,2.42
2023-04-03T19:51:33.370Z,2.63
2023-04-03T19:54:01.307Z,2.58
2023-04-03T19:56:28.625Z,2.75
2023-04-03T19:58:56.721Z,3.00
2023-04-03T20:01:24.712Z,3.00
2023-04-03T20:03:52.393Z,2.30
2023-04-03T20:06:19.779Z,2.92
2023-04-03T20:08:47.070Z,2.92
2023-04-03T20:11:15.336Z,2.58
2023-04-03T20:13:42.560Z,2.70
2023-04-03T20:16:10.134Z,2.90
2023-04-03T20:18:38.618Z,2.63
2023-04-03T20:21:07.034Z,2.60
2023-04-03T20:23:35.416Z,2.60
2023-04-03T20:26:12.687Z,2.05
2023-04-03T20:28:43.370Z,2.58
2023-04-03T20:31:12.051Z,3.03
2023-04-03T20:33:39.787Z,3.22
2023-04-03T20:36:07.486Z,3.15
2023-04-03T20:38:34.844Z,2.55
2023-04-03T20:41:02.311Z,2.78
2023-04-03T20:43:30.079Z,2.92
2023-04-03T20:46:03.059Z,2.97
2023-04-03T20:48:32.284Z,2.60
2023-04-03T20:51:08.810Z,2.47
2023-04-03T20:53:36.367Z,2.97
2023-04-03T20:56:04.062Z,2.47
2023-04-03T20:58:33.781Z,2.83
2023-04-03T21:01:01.544Z,2.67
2023-04-03T21:03:30.758Z,2.97
2023-04-03T21:06:00.163Z,2.80
2023-04-03T21:09:42.852Z,2.70
2023-04-03T21:13:25.560Z,2.45
2023-04-03T21:15:54.743Z,2.70
2023-04-03T21:19:23.629Z,2.47
2023-04-03T21:21:52.015Z,2.63
2023-04-03T21:24:19.713Z,2.40
2023-04-03T21:26:47.524Z,2.40
2023-04-03T21:29:15.597Z,2.05
2023-04-03T21:31:58.347Z,2.08
2023-04-03T21:34:30.877Z,2.20
2023-04-03T21:37:07.858Z,2.70
2023-04-03T21:39:35.244Z,2.20
2023-04-03T21:42:02.473Z,2.63
2023-04-03T21:44:29.699Z,1.95
2023-04-03T21:46:56.994Z,2.15
2023-04-03T21:49:25.762Z,2.20
2023-04-03T21:51:53.014Z,1.83
2023-04-03T21:54:20.695Z,2.35
2023-04-03T21:56:49.345Z,2.03
2023-04-03T22:01:44.183Z,1.67
2023-04-03T22:04:11.499Z,1.77
2023-04-03T22:06:38.824Z,1.70
2023-04-03T22:09:06.541Z,2.05
2023-04-03T22:11:33.941Z,1.80
2023-04-03T22:14:01.095Z,1.60
2023-04-03T22:16:28.523Z,1.80
2023-04-03T22:18:59.108Z,2.05
2023-04-03T22:21:27.085Z,1.65
2023-04-03T22:23:54.683Z,1.70
2023-04-03T22:26:22.681Z,1.60
2023-04-03T22:28:49.894Z,2.03
2023-04-03T22:31:17.700Z,1.60
2023-04-03T22:33:46.118Z,1.75
2023-04-03T22:36:14.140Z,1.73
2023-04-03T22:38:46.750Z,2.10
2023-04-03T22:41:14.051Z,2.17
2023-04-03T22:43:41.508Z,1.65
2023-04-03T22:46:09.689Z,1.70
2023-04-03T22:48:43.247Z,2.08
2023-04-03T22:51:11.233Z,2.20
2023-04-03T22:53:38.867Z,1.73
2023-04-03T22:56:10.962Z,1.65
2023-04-03T22:58:39.223Z,1.83
2023-04-03T23:01:14.903Z,1.77
2023-04-03T23:03:43.292Z,1.48
2023-04-03T23:06:12.638Z,1.58
2023-04-03T23:08:40.729Z,2.55
2023-04-03T23:11:09.594Z,1.88
2023-04-03T23:13:37.419Z,1.85
2023-04-03T23:16:05.429Z,1.85
2023-04-03T23:18:33.794Z,1.67
2023-04-03T23:21:04.003Z,1.52
2023-04-03T23:23:32.039Z,1.80
2023-04-03T23:26:03.160Z,1.80
2023-04-03T23:28:31.151Z,1.55
2023-04-03T23:31:01.613Z,2.00
2023-04-03T23:33:31.256Z,1.67
2023-04-03T23:36:01.168Z,1.92
2023-04-03T23:38:29.586Z,1.50
2023-04-03T23:40:57.053Z,1.80
2023-04-03T23:43:24.219Z,1.65
2023-04-03T23:45:51.631Z,1.92
2023-04-03T23:48:18.882Z,1.80
2023-04-03T23:50:46.237Z,1.80
2023-04-03T23:53:13.575Z,1.52
2023-04-03T23:55:41.886Z,1.98
2023-04-03T23:58:09.439Z,1.77
